• Join FlightAware (Why Join?)
  • Login
  • US Flag 
07:22AM EDT


 

Airport Tracker/Info


-or-


 

Live Flight TrackerFlight Track Log ✈ SWA2274 ✈ 13-Jul-2013 ✈ KSLC - KSEA

Flight Track Log - Related Links

Times and Time Zones

All times are in EDT time to prevent confusion due to time zone crossing. See the SWA2274 flight status page for this flight to view local times or setup timezone preferences in your user account.

Time Position Orientation Groundspeed Altitude Reporting Facility
EDT Latitude Longitude Course Direction KTS MPH feet Rate Location/Type
02:42PM 40.7531 -112.0244 249° West 214 246 6,400  Level Salt Lake Center
02:43PM 40.7656 -112.1122 281° West 261 300 8,800 1,980 Climbing Salt Lake Center
02:44PM 40.7983 -112.2083 294° West 293 337 10,500 2,040 Climbing Salt Lake Center
02:45PM 40.8578 -112.3036 310° West 347 399 13,100 3,540 Climbing Salt Lake Center
02:46PM 40.9592 -112.3781 331° Northwest 340 391 17,900 3,540 Climbing Salt Lake Center
02:47PM 41.0392 -112.4392 330° Northwest 332 382 20,500 2,460 Climbing Salt Lake Center
02:48PM 41.1275 -112.5056 330° Northwest 359 413 23,100 2,220 Climbing Salt Lake Center
02:49PM 41.2189 -112.5747 330° Northwest 378 435 25,100 1,800 Climbing Salt Lake Center
02:50PM 41.3072 -112.6586 325° Northwest 391 450 26,900 1,080 Climbing Salt Lake Center
02:51PM 41.3853 -112.7750 312° West 426 490 27,400 1,020 Climbing Salt Lake Center
02:52PM 41.4697 -112.9006 312° West 454 522 29,100 1,740 Climbing Salt Lake Center
02:53PM 41.5672 -113.0567 310° West 456 525 31,100 1,980 Climbing Salt Lake Center
02:54PM 41.6525 -113.1856 312° West 461 531 33,200 1,920 Climbing Salt Lake Center
02:56PM 41.7364 -113.3139 311° West 460 529 35,100 1,860 Climbing Salt Lake Center
02:57PM 41.8169 -113.4406 310° West 448 516 37,100 1,380 Climbing Salt Lake Center
02:58PM 41.8972 -113.5628 311° West 439 505 38,000 420 Climbing Salt Lake Center
02:59PM 41.9775 -113.6894 310° West 445 512 38,000  Level Salt Lake Center
03:00PM 42.0808 -113.8339 314° West 448 516 38,000  Level Salt Lake Center
03:01PM 42.1708 -113.9511 316° Northwest 449 517 38,000  Level Salt Lake Center
03:02PM 42.2606 -114.0681 316° Northwest 448 516 38,000  Level Salt Lake Center
03:03PM 42.3494 -114.1831 316° Northwest 445 512 38,000  Level Salt Lake Center
03:04PM 42.4364 -114.3069 314° West 446 513 38,000  Level Salt Lake Center
03:05PM 42.5244 -114.4239 316° Northwest 446 513 38,000  Level Salt Lake Center
03:06PM 42.6300 -114.5650 315° West 444 511 38,000  Level Salt Lake Center
03:07PM 42.7139 -114.6783 315° West 446 513 38,000  Level Salt Lake Center
03:08PM 42.8108 -114.8094 315° West 442 509 38,000  Level Salt Lake Center
03:09PM 42.8947 -114.9217 316° Northwest 438 504 38,000  Level Salt Lake Center
03:10PM 42.9800 -115.0381 315° West 449 517 38,000  Level Salt Lake Center
03:11PM 43.0767 -115.1717 315° West 443 510 38,000  Level Salt Lake Center
03:12PM 43.1606 -115.2872 315° West 447 514 38,000  Level Salt Lake Center
03:13PM 43.2603 -115.4233 315° West 450 518 38,000  Level Salt Lake Center
03:14PM 43.3439 -115.5408 314° West 450 518 38,000  Level Salt Lake Center
03:15PM 43.4414 -115.6767 315° West 446 513 38,000  Level Salt Lake Center
03:16PM 43.5236 -115.7939 314° West 444 511 38,000  Level Salt Lake Center
03:17PM 43.6203 -115.9300 314° West 444 511 38,000  Level Salt Lake Center
03:18PM 43.7022 -116.0458 314° West 440 506 38,000  Level Salt Lake Center
03:19PM 43.7983 -116.1822 314° West 441 507 38,000  Level Salt Lake Center
03:20PM 43.8794 -116.2978 314° West 437 503 38,000  Level Salt Lake Center
03:21PM 43.9606 -116.4153 314° West 437 503 38,000  Level Salt Lake Center
03:22PM 44.0556 -116.5514 314° West 436 502 38,000  Level Salt Lake Center
03:23PM 44.1367 -116.6714 313° West 438 504 38,000  Level Salt Lake Center
03:24PM 44.2314 -116.8078 314° West 436 502 38,000  Level Salt Lake Center
03:25PM 44.3119 -116.9258 314° West 437 503 38,000  Level Salt Lake Center
03:27PM 44.4064 -117.0644 314° West 439 505 38,000  Level Salt Lake Center
03:28PM 44.4869 -117.1814 314° West 436 502 38,000  Level Salt Lake Center
03:29PM 44.5667 -117.3006 313° West 437 503 38,000  Level Salt Lake Center
03:30PM 44.6614 -117.4383 314° West 436 502 38,000  Level Salt Lake Center
03:31PM 44.7403 -117.5586 313° West 437 503 38,000  Level Salt Lake Center
03:32PM 44.8336 -117.6975 313° West 437 503 38,000  Level Salt Lake Center
03:32PM 44.8867 -117.7783 313° West 436 502 38,000  Level Seattle Center
03:33PM 44.9647 -117.8956 313° West 430 495 38,000  Level Seattle Center
03:34PM 45.0553 -118.0344 313° West 428 493 38,000  Level Seattle Center
03:35PM 45.1325 -118.1519 313° West 426 490 38,000  Level Seattle Center
03:36PM 45.2106 -118.2711 313° West 425 489 38,000  Level Seattle Center
03:37PM 45.2897 -118.3936 313° West 424 488 38,000 -360 Level Seattle Center
03:39PM 45.4483 -118.6414 312° West 427 491 36,900 -660 Descending Seattle Center
03:40PM 45.5272 -118.7650 312° West 426 490 36,000 -480 Descending Seattle Center
03:42PM 45.6239 -118.9153 313° West 429 494 36,000  Level Seattle Center
03:43PM 45.7042 -119.0397 313° West 430 495 36,000  Level Seattle Center
03:44PM 45.7819 -119.1647 312° West 426 490 36,000  Level Seattle Center
03:45PM 45.8603 -119.2889 312° West 423 487 36,000  Level Seattle Center
03:46PM 45.9364 -119.4117 312° West 417 480 36,000  Level Seattle Center
03:47PM 46.0136 -119.5361 312° West 419 482 36,000  Level Seattle Center
03:48PM 46.0903 -119.6597 312° West 417 480 36,000  Level Seattle Center
03:49PM 46.1664 -119.7822 312° West 412 474 36,000  Level Seattle Center
03:50PM 46.2583 -119.9317 312° West 417 480 36,000 -300 Level Seattle Center
03:51PM 46.3339 -120.0567 311° West 416 479 35,500 -1,380 Descending Seattle Center
03:52PM 46.4086 -120.1811 311° West 412 474 33,200 -2,100 Descending Seattle Center
03:53PM 46.4817 -120.2989 312° West 399 459 31,200 -1,980 Descending Seattle Center
03:54PM 46.5503 -120.4164 310° West 387 445 29,200 -1,920 Descending Seattle Center
03:55PM 46.6111 -120.5306 308° West 363 418 27,300 -1,860 Descending Seattle Center
03:56PM 46.6672 -120.6475 305° West 355 409 25,500 -1,800 Descending Seattle Center
03:57PM 46.7214 -120.7625 305° West 347 399 23,700 -1,800 Descending Seattle Center
03:58PM 46.7725 -120.8725 304° West 332 382 21,900 -1,860 Descending Seattle Center
03:59PM 46.8322 -121.0022 304° West 323 372 19,900 -1,860 Descending Seattle Center
04:00PM 46.8833 -121.1086 305° West 322 371 18,200 -1,680 Descending Seattle Center
04:01PM 46.9361 -121.2197 305° West 323 372 16,600 -1,680 Descending Seattle Center
04:02PM 46.9828 -121.3250 303° West 314 361 14,900 -1,800 Descending Seattle Center
04:03PM 47.0358 -121.4400 304° West 310 357 13,000 -1,620 Descending Seattle Center
04:04PM 47.0842 -121.5394 306° West 298 343 11,600 -1,440 Descending Seattle Center
04:05PM 47.1300 -121.6361 305° West 288 331 10,100 -1,620 Descending Seattle Center
04:06PM 47.1572 -121.7447 290° West 285 328 8,400 -1,500 Descending Seattle Center
04:07PM 47.1822 -121.8639 287° West 282 325 7,100 -900 Descending Seattle Center
04:08PM 47.1781 -121.9750 267° West 272 313 6,600 -1,020 Descending Seattle Center
04:09PM 47.1767 -122.0903 269° West 277 319 5,100 -1,080 Descending Seattle Center
04:10PM 47.1847 -122.2000 276° West 266 306 4,500 -600 Descending Seattle Center
04:11PM 47.2267 -122.2683 312° West 226 260 3,900 -720 Descending Seattle Center
04:12PM 47.2875 -122.2992 341° North 218 251 3,000 -840 Descending Seattle Center
04:13PM 47.3364 -122.3058 355° North 183 211 2,300 -780 Descending Seattle Center
04:14PM 47.3806 -122.3083 358° North 146 168 1,500 -780 Descending Seattle Center
04:15PM 47.4194 -122.3083 360° North 132 152 700 -540 Descending Seattle Center
04:16PM 47.4569 -122.3094 359° North 135 155 400 -300 Descending Seattle Center
04:18PM 47.4499 -122.3118 306° West  Level Estimated